Pagina principale
METAR-TAF:

METAR-TAF

Aeroporti :

Aeroporto di Roma-Ciampino

Roma Ciampino, Italia

latitudine: 41-47N, longitudine: 012-35E, altezza: 129 m

Osservazione

Il bollettino è stato emesso 11 minuti fa, alle 17:50 UTC
Vento 6 kt da sud/sud-ovest
Temperature 9°C
Umidità 87%
Pressione 1019 hPa
Visibilità 10 km o più
Nubi sparse ad un'altezza di 2000 ft
Nuvoloso ad un'altezza di 3500 ft
pioggia debole

METAR: LIRA 201750Z 20006KT 9999 -RA SCT020 BKN035 09/07 Q1019

Ora: 19:01 (18:01 UTC)

Previsione

Il bollettino è stato emesso 1 ora e 1 minuti fa, alle 17:00 UTC
Previsione valida dal 20 alle 18 UTC al 21 alle 18 UTC
Vento 5 kt da direzioni variabili
Visibilità 10 km o più
Nubi sparse ad un'altezza di 3000 ft
Temporaneamente
dal 20 alle 18 UTC al 21 alle 03 UTC
Visibilità: 3000 m
pioggia

TAF: LIRA 201700Z 2018/2118 VRB05KT 9999 SCT030 TEMPO 2018/2103 3000 RA

Osservazioni e previsioni meteorologiche di più di 4000 aeroporti (messaggi METAR e TAF).

Le stazioni disponibili sono rappresentate dai dischi gialli e rossi sulla carta.

Puntare il mouse per vedere il nome della stazione.

Clicca sopra per visualizzare le osservazioni e previsioni meteorologiche.

Per cambiare la mappa : fare clic sui pulsanti verdi con una croce nera per ingrandire, il pulsante verde con un trattino per diminuire, o sulla freccia verde per le mappe adiacenti.


METAR-TAF: